Time;durP1;ratioP1;P1;durP2;ratioP2;P2;SDS_P1;SDS_P2;PMS_P1;PMS_P2;Temp;Humidity;BMP_temperature;BMP_pressure;BME280_temperature;BME280_humidity;BME280_pressure;Samples;Min_cycle;Max_cycle;Signal;HPM_P1;HPM_P2
2020/12/13 00:01:13;;;;;;;32.65;21.48;;;;;;;2.24;86.38;100741.98;1733399;81;21218;-77
2020/12/13 00:03:41;;;;;;;33.08;21.93;;;;;;;2.26;86.48;100744.27;1733445;82;21904;-77
2020/12/13 00:06:08;;;;;;;38.50;23.70;;;;;;;2.30;86.52;100740.62;1733263;82;21139;-77
2020/12/13 00:08:35;;;;;;;35.55;21.27;;;;;;;2.30;86.48;100735.84;1733261;82;21617;-76
2020/12/13 00:11:02;;;;;;;32.90;20.97;;;;;;;2.30;86.42;100738.44;1733405;82;21202;-76
2020/12/13 00:13:29;;;;;;;34.00;21.70;;;;;;;2.30;86.35;100744.93;1733284;82;21545;-77
2020/12/13 00:15:56;;;;;;;30.10;21.25;;;;;;;2.28;86.37;100743.95;1733327;81;21902;-77
2020/12/13 00:18:23;;;;;;;33.75;21.65;;;;;;;2.26;86.36;100742.97;1733175;82;21164;-76
2020/12/13 00:20:50;;;;;;;32.80;22.07;;;;;;;2.26;86.42;100753.36;1733226;82;21072;-77
2020/12/13 00:23:17;;;;;;;31.70;20.80;;;;;;;2.27;86.35;100748.64;1733241;82;21147;-77
2020/12/13 00:25:44;;;;;;;33.63;21.55;;;;;;;2.25;86.35;100748.58;1733248;82;21604;-76
2020/12/13 00:28:12;;;;;;;31.57;20.92;;;;;;;2.26;86.37;100744.27;1733315;82;22100;-76
2020/12/13 00:30:39;;;;;;;34.23;20.32;;;;;;;2.27;86.37;100752.53;1733189;81;21135;-76
2020/12/13 00:33:06;;;;;;;30.50;21.45;;;;;;;2.28;86.39;100750.44;1733314;82;21606;-77
2020/12/13 00:35:33;;;;;;;33.90;20.37;;;;;;;2.31;86.39;100755.83;1733311;82;21151;-77
2020/12/13 00:38:01;;;;;;;34.40;21.40;;;;;;;2.30;86.33;100760.52;1733379;82;21202;-77
2020/12/13 00:40:28;;;;;;;30.55;19.95;;;;;;;2.29;86.32;100759.63;1733294;81;22786;-76
2020/12/13 00:42:55;;;;;;;30.77;20.45;;;;;;;2.28;86.31;100760.42;1733189;82;21597;-76
2020/12/13 00:45:22;;;;;;;31.48;21.15;;;;;;;2.29;86.28;100766.13;1733212;82;21195;-77
2020/12/13 00:47:49;;;;;;;30.45;19.82;;;;;;;2.31;86.32;100764.50;1733379;82;21085;-77
2020/12/13 00:50:16;;;;;;;29.20;20.92;;;;;;;2.31;86.26;100762.32;1733386;82;21156;-77
2020/12/13 00:52:45;;;;;;;32.35;20.50;;;;;;;2.31;86.31;100762.32;1733300;82;21892;-77
2020/12/13 00:55:12;;;;;;;31.68;20.50;;;;;;;2.27;86.23;100766.44;1733198;82;21697;-76
2020/12/13 00:57:40;;;;;;;33.33;19.90;;;;;;;2.27;86.25;100759.02;1733288;82;21202;-75
2020/12/13 01:00:07;;;;;;;29.30;19.55;;;;;;;2.27;86.35;100756.43;1702262;82;21143;-76
2020/12/13 01:02:34;;;;;;;31.35;19.55;;;;;;;2.26;86.32;100755.55;1733171;82;21138;-77
2020/12/13 01:05:01;;;;;;;35.30;21.00;;;;;;;2.27;86.32;100766.44;1733180;82;21884;-76
2020/12/13 01:07:28;;;;;;;30.05;19.07;;;;;;;2.26;86.28;100768.94;1733123;82;21680;-77
2020/12/13 01:09:55;;;;;;;28.45;19.17;;;;;;;2.20;86.18;100769.89;1733168;82;21566;-77
2020/12/13 01:12:22;;;;;;;34.35;19.90;;;;;;;2.17;86.29;100769.28;1733266;82;21174;-77
2020/12/13 01:14:50;;;;;;;31.35;19.35;;;;;;;2.20;86.35;100762.09;1733356;81;21554;-77
2020/12/13 01:17:17;;;;;;;33.78;21.15;;;;;;;2.19;86.31;100766.78;1733171;81;22218;-76
2020/12/13 01:19:47;;;;;;;32.50;19.60;;;;;;;2.18;86.31;100763.30;1733148;82;21226;-77
2020/12/13 01:22:12;;;;;;;29.52;19.12;;;;;;;2.21;86.36;100767.77;1733069;81;21147;-76
2020/12/13 01:24:39;;;;;;;30.68;19.57;;;;;;;2.22;86.34;100763.97;1733288;82;21226;-76
2020/12/13 01:27:08;;;;;;;25.30;18.27;;;;;;;2.21;86.27;100760.86;1733251;82;21138;-76
2020/12/13 01:29:35;;;;;;;26.02;17.98;;;;;;;2.22;86.24;100765.67;1732831;81;22086;-76
2020/12/13 01:32:03;;;;;;;25.48;17.73;;;;;;;2.19;86.21;100766.37;1733025;82;21222;-77
2020/12/13 01:34:30;;;;;;;32.10;18.70;;;;;;;2.21;86.19;100762.58;1733157;82;21272;-77
2020/12/13 01:36:57;;;;;;;29.12;18.30;;;;;;;2.20;86.20;100763.39;1733236;82;21201;-77
2020/12/13 01:39:24;;;;;;;30.20;18.60;;;;;;;2.22;86.27;100765.67;1733396;82;21172;-77
2020/12/13 01:41:58;;;;;;;30.55;19.55;;;;;;;2.25;86.30;100768.43;1733315;82;21902;-77
2020/12/13 01:44:31;;;;;;;30.05;18.15;;;;;;;2.26;86.25;100769.83;1733176;82;21198;-76
2020/12/13 01:46:59;;;;;;;;;;;;;;;2.26;86.17;100772.42;1735778;82;21183;-77
2020/12/13 01:54:37;;;;;;;30.68;19.42;;;;;;;2.24;86.16;100771.86;1857038;77;21154;-76
2020/12/13 01:57:04;;;;;;;27.42;17.85;;;;;;;2.21;86.12;100772.55;1825156;77;21888;-76
2020/12/13 01:59:33;;;;;;;26.90;17.90;;;;;;;2.22;86.16;100776.06;1857028;77;21181;-76
2020/12/13 02:02:03;;;;;;;28.00;18.10;;;;;;;2.23;86.19;100783.03;1857083;77;21110;-77
2020/12/13 02:04:35;;;;;;;26.50;17.95;;;;;;;2.24;86.19;100780.95;1857040;77;21170;-76
2020/12/13 02:07:02;;;;;;;28.80;18.85;;;;;;;2.24;86.17;100796.53;1857047;77;21178;-76
2020/12/13 02:09:30;;;;;;;26.05;18.37;;;;;;;2.27;86.28;100787.22;1856990;77;21872;-76
2020/12/13 02:11:57;;;;;;;29.05;19.02;;;;;;;2.28;86.17;100785.50;1856930;77;21232;-77
2020/12/13 02:14:26;;;;;;;28.83;18.57;;;;;;;2.29;86.19;100788.20;1856989;77;21613;-76
2020/12/13 02:16:53;;;;;;;28.10;18.67;;;;;;;2.27;86.09;100782.40;1857135;76;21195;-77
2020/12/13 02:19:20;;;;;;;26.35;19.25;;;;;;;2.29;86.16;100783.38;1856989;77;21558;-78
2020/12/13 02:21:48;;;;;;;30.70;18.65;;;;;;;2.28;86.10;100784.20;1857008;76;22081;-77
2020/12/13 02:24:15;;;;;;;31.30;17.40;;;;;;;2.30;86.09;100789.09;1856936;77;21133;-77
2020/12/13 02:26:43;;;;;;;30.10;18.52;;;;;;;2.32;86.08;100788.36;1856950;77;21143;-77
2020/12/13 02:29:10;;;;;;;28.98;18.42;;;;;;;2.30;86.03;100797.77;1857020;77;21146;-76
2020/12/13 02:31:37;;;;;;;26.82;18.62;;;;;;;2.30;86.03;100800.36;1856948;76;21134;-77
2020/12/13 02:34:04;;;;;;;30.45;18.30;;;;;;;2.29;86.02;100805.08;1857079;77;22793;-77
2020/12/13 02:36:32;;;;;;;34.25;19.12;;;;;;;2.30;86.04;100800.77;1856921;76;21233;-77
2020/12/13 02:39:00;;;;;;;29.30;19.17;;;;;;;2.28;86.04;100798.08;1856998;77;21182;-77
2020/12/13 02:41:27;;;;;;;31.20;20.05;;;;;;;2.29;86.07;100805.08;1857108;77;21212;-76
2020/12/13 02:43:54;;;;;;;31.25;17.80;;;;;;;2.29;86.04;100805.08;1856993;77;21174;-77
2020/12/13 02:46:21;;;;;;;27.05;17.77;;;;;;;2.28;86.03;100796.78;1857023;77;21882;-77
2020/12/13 02:48:48;;;;;;;26.97;18.50;;;;;;;2.25;86.03;100796.63;1856884;76;21131;-77
2020/12/13 02:51:20;;;;;;;29.98;18.82;;;;;;;2.27;86.08;100797.61;1856884;77;21131;-76
2020/12/13 02:53:52;;;;;;;29.15;19.60;;;;;;;2.31;86.16;100799.98;1856909;77;21114;-78
2020/12/13 02:56:24;;;;;;;31.50;17.90;;;;;;;2.32;86.09;100794.84;1856953;77;22761;-77
2020/12/13 02:58:52;;;;;;;31.45;19.15;;;;;;;2.32;86.09;100796.56;1857173;77;22174;-77
2020/12/13 03:01:25;;;;;;;30.20;19.00;;;;;;;2.36;86.10;100800.23;1856807;77;21138;-77
2020/12/13 03:03:58;;;;;;;30.15;18.30;;;;;;;2.34;86.05;100801.44;1823860;77;21179;-77
2020/12/13 03:06:25;;;;;;;26.10;16.77;;;;;;;2.34;86.03;100806.22;1856291;76;21115;-77
2020/12/13 03:08:52;;;;;;;32.48;19.42;;;;;;;2.33;86.02;100797.95;1856436;76;21123;-77
2020/12/13 03:11:22;;;;;;;29.12;16.80;;;;;;;2.32;86.00;100797.45;1856362;77;22181;-77
2020/12/13 03:13:51;;;;;;;29.05;17.52;;;;;;;2.33;86.03;100798.37;1856383;76;21192;-77
2020/12/13 03:16:19;;;;;;;27.62;18.10;;;;;;;2.33;86.01;100803.56;1856392;77;21207;-76
2020/12/13 03:18:46;;;;;;;30.55;17.07;;;;;;;2.33;86.04;100800.97;1856334;77;21162;-77
2020/12/13 03:21:13;;;;;;;30.57;18.80;;;;;;;2.35;86.00;100805.84;1856290;77;21123;-77
2020/12/13 03:23:40;;;;;;;29.80;18.27;;;;;;;2.34;85.98;100807.52;1856401;77;21876;-77
2020/12/13 03:26:07;;;;;;;31.27;18.80;;;;;;;2.33;85.96;100806.16;1856195;77;21131;-76
2020/12/13 03:28:34;;;;;;;29.40;18.27;;;;;;;2.34;85.99;100811.83;1856348;77;21091;-77
2020/12/13 03:31:01;;;;;;;30.27;18.75;;;;;;;2.33;86.00;100813.55;1856359;77;21103;-76
2020/12/13 03:33:28;;;;;;;29.52;18.05;;;;;;;2.32;85.94;100815.63;1856344;77;21163;-77
2020/12/13 03:35:55;;;;;;;32.30;19.57;;;;;;;2.33;85.99;100820.45;1856391;77;21892;-77
2020/12/13 03:38:32;;;;;;;32.35;18.55;;;;;;;2.32;85.95;100819.94;1856227;77;21588;-77
2020/12/13 03:41:05;;;;;;;33.02;18.80;;;;;;;2.32;85.94;100813.45;1855197;76;21198;-77
2020/12/13 03:43:35;;;;;;;35.52;20.30;;;;;;;2.30;85.92;100818.95;1856328;77;21628;-77
2020/12/13 03:46:02;;;;;;;33.05;19.05;;;;;;;2.27;86.01;100820.06;1856177;76;21166;-77
2020/12/13 03:48:29;;;;;;;32.00;19.77;;;;;;;2.27;86.06;100823.95;1856366;77;21814;-77
2020/12/13 03:50:56;;;;;;;38.55;19.67;;;;;;;2.25;86.06;100821.30;1856079;75;21174;-77
2020/12/13 03:53:25;;;;;;;33.30;19.40;;;;;;;2.24;86.07;100827.69;1856182;76;21114;-77
2020/12/13 03:55:52;;;;;;;30.45;18.87;;;;;;;2.22;86.14;100823.70;1856236;77;21079;-77
2020/12/13 03:58:19;;;;;;;37.38;21.10;;;;;;;2.21;86.09;100823.60;1856288;76;21110;-77
2020/12/13 04:00:47;;;;;;;35.70;19.32;;;;;;;2.17;86.12;100825.11;1856371;77;22858;-78
2020/12/13 04:03:18;;;;;;;38.98;20.90;;;;;;;2.14;86.19;100821.06;1856207;76;21705;-77
2020/12/13 04:05:48;;;;;;;38.33;21.12;;;;;;;2.16;86.30;100822.42;1856246;77;21102;-77
2020/12/13 04:08:15;;;;;;;39.85;20.55;;;;;;;2.17;86.36;100820.33;1856295;77;21177;-78
2020/12/13 04:10:44;;;;;;;33.08;19.73;;;;;;;2.14;86.33;100831.03;1856280;77;21557;-77
2020/12/13 04:13:13;;;;;;;34.48;19.57;;;;;;;2.14;86.37;100823.66;1856363;77;21663;-76
2020/12/13 04:15:40;;;;;;;33.05;18.23;;;;;;;2.18;86.49;100828.59;1856273;77;21118;-77
2020/12/13 04:18:08;;;;;;;35.30;20.43;;;;;;;2.19;86.47;100821.31;1856033;77;21139;-78
2020/12/13 04:20:36;;;;;;;32.88;18.62;;;;;;;2.21;86.51;100822.30;1856268;77;21181;-77
2020/12/13 04:23:04;;;;;;;36.90;20.00;;;;;;;2.18;86.43;100820.81;1856363;77;21602;-78
2020/12/13 04:25:31;;;;;;;35.73;19.70;;;;;;;2.16;86.49;100825.94;1856421;77;21203;-76
2020/12/13 04:27:58;;;;;;;35.30;19.80;;;;;;;2.14;86.52;100827.14;1856262;77;21696;-77
2020/12/13 04:30:28;;;;;;;34.08;20.37;;;;;;;2.12;86.53;100828.75;1856219;77;21562;-78
2020/12/13 04:33:01;;;;;;;32.65;20.27;;;;;;;2.10;86.52;100820.35;1856337;77;21158;-76
2020/12/13 04:35:31;;;;;;;33.33;20.12;;;;;;;2.08;86.63;100824.56;1856270;77;21639;-77
2020/12/13 04:38:00;;;;;;;35.68;19.25;;;;;;;2.09;86.75;100824.66;1856284;77;21214;-77
2020/12/13 04:40:27;;;;;;;39.95;21.55;;;;;;;2.08;86.74;100821.59;1856211;77;21160;-77
2020/12/13 04:42:59;;;;;;;37.33;20.00;;;;;;;2.08;86.78;100824.19;1856332;77;21147;-77
2020/12/13 04:45:31;;;;;;;37.65;21.25;;;;;;;2.08;86.79;100830.67;1827292;77;21189;-77
2020/12/13 04:48:08;;;;;;;41.30;21.82;;;;;;;2.06;86.81;100832.25;1856407;77;21186;-76
2020/12/13 04:50:39;;;;;;;37.33;21.07;;;;;;;2.06;86.87;100833.97;1856195;77;22025;-77
2020/12/13 04:53:09;;;;;;;34.43;20.40;;;;;;;2.05;86.93;100831.78;1856212;77;21186;-77
2020/12/13 04:55:52;;;;;;;35.38;20.27;;;;;;;2.06;86.96;100827.47;1856339;76;21178;-78
2020/12/13 04:58:23;;;;;;;36.10;21.07;;;;;;;2.05;86.96;100833.08;1856571;77;21294;-77
2020/12/13 05:00:57;;;;;;;42.38;22.42;;;;;;;2.05;87.04;100840.87;1856363;76;21056;-77
2020/12/13 05:03:26;;;;;;;40.60;20.82;;;;;;;2.06;87.10;100839.16;1856416;77;23774;-78
2020/12/13 05:05:58;;;;;;;37.30;20.05;;;;;;;2.09;87.17;100844.14;1856188;77;21069;-78
2020/12/13 05:08:21;;;;;;;37.53;21.62;;;;;;;2.07;87.03;100839.66;1855499;77;21548;-78
2020/12/13 05:10:48;;;;;;;42.65;20.97;;;;;;;2.06;87.08;100845.23;1856213;77;21232;-78
2020/12/13 05:13:16;;;;;;;34.18;20.37;;;;;;;2.07;87.05;100840.96;1856291;77;21138;-77
2020/12/13 05:15:42;;;;;;;37.40;20.25;;;;;;;2.08;87.11;100845.33;1856388;77;22082;-78
2020/12/13 05:18:09;;;;;;;34.67;19.40;;;;;;;2.09;87.10;100844.55;1856312;77;21159;-77
2020/12/13 05:20:37;;;;;;;35.65;20.08;;;;;;;2.10;87.18;100851.13;1856330;77;21649;-78
2020/12/13 05:23:04;;;;;;;36.55;19.87;;;;;;;2.13;87.22;100842.62;1856181;77;21170;-78
2020/12/13 05:25:35;;;;;;;37.63;21.20;;;;;;;2.15;87.13;100839.71;1856278;77;21171;-78
2020/12/13 05:28:05;;;;;;;38.55;20.85;;;;;;;2.16;87.11;100844.49;1856231;77;21870;-78
2020/12/13 05:33:26;;;;;;;37.13;20.25;;;;;;;2.24;87.08;100841.98;1888660;75;22646;-77
2020/12/13 05:35:49;;;;;;;34.92;20.45;;;;;;;2.21;87.08;100845.67;1858761;77;21103;-78
2020/12/13 05:38:17;;;;;;;36.65;20.62;;;;;;;2.20;86.99;100849.09;1859610;77;22071;-77
2020/12/13 05:40:44;;;;;;;38.40;22.15;;;;;;;2.19;86.99;100849.88;1858340;75;21183;-79
2020/12/13 05:43:21;;;;;;;37.03;19.75;;;;;;;2.19;87.01;100852.48;1845888;77;21136;-78
2020/12/13 05:51:26;;;;;;;37.17;20.20;;;;;;;2.21;86.97;100856.06;1891975;75;22846;-79
2020/12/13 05:53:57;;;;;;;39.60;20.77;;;;;;;2.20;86.98;100860.37;1790354;79;21156;-78
2020/12/13 05:56:24;;;;;;;;;;;;;;;2.19;86.93;100853.37;1852664;77;21172;-79
2020/12/13 05:58:52;;;;;;;39.53;21.48;;;;;;;2.17;86.94;100855.39;1825562;77;20216;-78
2020/12/13 06:01:22;;;;;;;44.65;20.60;;;;;;;2.13;86.99;100856.49;1792831;80;21167;-79
2020/12/13 06:03:51;;;;;;;34.65;19.37;;;;;;;2.13;87.01;100861.69;1792991;80;21882;-79
2020/12/13 06:06:23;;;;;;;37.10;20.72;;;;;;;2.16;87.12;100865.27;1792923;79;21116;-79
2020/12/13 06:09:07;;;;;;;39.55;21.20;;;;;;;2.16;87.11;100869.16;1796824;78;21135;-79
2020/12/13 06:11:49;;;;;;;41.00;21.25;;;;;;;2.20;87.18;100869.46;1796863;79;21159;-81
2020/12/13 06:14:21;;;;;;;44.35;21.60;;;;;;;2.22;87.15;100872.16;1796885;79;21522;-78
2020/12/13 06:16:49;;;;;;;41.42;21.48;;;;;;;2.25;87.15;100869.34;1796660;79;21884;-78
2020/12/13 06:19:22;;;;;;;40.00;21.65;;;;;;;2.27;87.13;100870.33;1796800;79;21207;-78
2020/12/13 06:21:49;;;;;;;41.35;22.05;;;;;;;2.30;87.16;100869.61;1797007;79;21120;-77
2020/12/13 06:26:55;;;;;;;37.30;20.60;;;;;;;2.34;87.00;100869.86;1888402;76;22872;-78
2020/12/13 06:29:25;;;;;;;35.28;19.30;;;;;;;2.31;87.01;100875.31;1865789;75;21097;-78
2020/12/13 06:31:52;;;;;;;39.10;19.75;;;;;;;2.32;86.99;100873.19;1877661;75;21889;-78
2020/12/13 06:34:19;;;;;;;41.25;20.48;;;;;;;2.35;87.02;100881.17;1849112;75;21130;-78
2020/12/13 06:36:46;;;;;;;38.55;19.90;;;;;;;2.36;86.99;100880.36;1879672;75;21187;-76
2020/12/13 06:39:15;;;;;;;42.00;19.55;;;;;;;2.36;86.92;100887.27;1860469;75;21135;-78
2020/12/13 06:41:48;;;;;;;41.85;20.52;;;;;;;2.35;86.99;100888.97;1878389;75;21157;-78
2020/12/13 06:44:16;;;;;;;45.17;21.27;;;;;;;2.36;86.96;100886.84;1891960;75;27179;-78
2020/12/13 06:46:45;;;;;;;42.05;19.73;;;;;;;2.38;86.99;100886.95;1891517;75;21246;-78
2020/12/13 06:49:20;;;;;;;38.50;19.45;;;;;;;2.37;86.90;100891.67;1891796;75;21104;-78
2020/12/13 06:51:58;;;;;;;37.55;19.85;;;;;;;2.38;86.95;100894.33;1891782;75;21136;-79
2020/12/13 06:54:29;;;;;;;41.90;20.75;;;;;;;2.39;86.96;100892.65;1887057;75;21129;-79
2020/12/13 06:56:56;;;;;;;37.03;20.77;;;;;;;2.38;86.92;100889.13;1833032;75;21879;-79
2020/12/13 06:59:23;;;;;;;41.02;20.50;;;;;;;2.39;86.95;100887.05;1850043;75;21139;-78
2020/12/13 07:01:55;;;;;;;41.50;20.35;;;;;;;2.43;86.98;100895.92;1857112;75;21056;-79
2020/12/13 07:04:31;;;;;;;44.60;21.07;;;;;;;2.41;86.92;100897.13;1884340;75;21276;-79
2020/12/13 07:09:42;;;;;;;45.30;20.05;;;;;;;2.35;86.91;100903.26;1821340;78;21566;-77
2020/12/13 07:12:16;;;;;;;42.20;20.62;;;;;;;2.33;86.94;100908.77;1776186;80;21664;-78
2020/12/13 07:17:32;;;;;;;36.83;19.73;;;;;;;2.37;86.97;100904.66;1785991;77;22853;-79
2020/12/13 07:20:00;;;;;;;41.18;20.50;;;;;;;2.32;87.08;100909.14;1760617;80;26348;-79
2020/12/13 07:22:34;;;;;;;46.42;21.42;;;;;;;2.34;87.07;100905.34;1725839;81;21895;-78
2020/12/13 07:25:01;;;;;;;39.65;19.55;;;;;;;2.32;87.03;100910.85;1770645;80;21217;-78
2020/12/13 07:27:35;;;;;;;41.65;21.10;;;;;;;2.31;87.08;100905.18;1731535;81;21617;-78
2020/12/13 07:30:02;;;;;;;38.75;19.35;;;;;;;2.30;87.08;100908.16;1727544;83;21251;-79
2020/12/13 07:32:31;;;;;;;41.18;21.25;;;;;;;2.31;87.14;100905.18;1752054;80;21481;-80
2020/12/13 07:35:00;;;;;;;38.00;19.80;;;;;;;2.32;87.18;100910.85;1729196;81;21892;-79
2020/12/13 07:37:32;;;;;;;42.75;20.25;;;;;;;2.33;87.16;100913.96;1727589;83;21164;-77
2020/12/13 07:43:06;;;;;;;41.28;20.55;;;;;;;2.41;87.16;100915.72;1866961;76;22615;-77
2020/12/13 07:45:46;;;;;;;37.80;20.05;;;;;;;2.40;87.14;100919.11;1800066;78;22754;-77
2020/12/13 07:48:19;;;;;;;43.13;22.17;;;;;;;2.36;87.16;100921.03;1764943;79;21214;-76
2020/12/13 07:50:47;;;;;;;41.48;20.88;;;;;;;2.34;87.16;100921.82;1769105;79;22089;-77
2020/12/13 07:53:35;;;;;;;38.85;20.27;;;;;;;2.35;87.25;100929.23;1768854;79;21222;-76
2020/12/13 07:56:24;;;;;;;41.15;21.00;;;;;;;2.34;87.20;100936.52;1787364;79;21119;-78
2020/12/13 07:58:51;;;;;;;40.48;22.02;;;;;;;2.31;87.20;100935.05;1770415;79;21105;-79
2020/12/13 08:01:21;;;;;;;49.30;22.67;;;;;;;2.29;87.18;100935.33;1764489;79;21135;-79
2020/12/13 08:03:50;;;;;;;49.33;23.05;;;;;;;2.29;87.28;100932.73;1739483;81;21828;-79
2020/12/13 08:06:17;;;;;;;47.60;22.65;;;;;;;2.30;87.37;100941.92;1767536;81;21146;-79
2020/12/13 08:08:44;;;;;;;43.35;22.55;;;;;;;2.31;87.42;100937.65;1767497;79;21278;-80
2020/12/13 08:11:13;;;;;;;46.35;23.02;;;;;;;2.33;87.49;100951.22;1767678;80;21581;-76
2020/12/13 08:13:48;;;;;;;38.88;21.55;;;;;;;2.32;87.42;100948.52;1767487;79;21217;-77
2020/12/13 08:16:16;;;;;;;48.05;22.95;;;;;;;2.32;87.46;100957.61;1768230;79;21887;-81
2020/12/13 08:18:49;;;;;;;39.73;21.93;;;;;;;2.32;87.44;100954.59;1767691;81;21648;-80
2020/12/13 08:21:33;;;;;;;47.58;24.77;;;;;;;2.32;87.43;100953.71;1767604;81;21154;-77
2020/12/13 08:24:03;;;;;;;39.80;22.62;;;;;;;2.32;87.45;100955.90;1767737;81;21610;-77
2020/12/13 08:26:31;;;;;;;45.38;24.65;;;;;;;2.33;87.46;100957.70;1767770;81;21171;-77
2020/12/13 08:29:00;;;;;;;41.55;23.18;;;;;;;2.34;87.47;100956.00;1767868;81;21894;-78
2020/12/13 08:31:30;;;;;;;48.58;25.10;;;;;;;2.36;87.48;100960.00;1767695;81;21175;-77
2020/12/13 08:34:06;;;;;;;51.73;25.45;;;;;;;2.37;87.52;100962.70;1767774;81;21218;-76
2020/12/13 08:36:34;;;;;;;41.15;22.70;;;;;;;2.40;87.53;100963.27;1767916;81;21179;-77
2020/12/13 08:39:05;;;;;;;54.63;24.60;;;;;;;2.44;87.61;100970.44;1767746;81;21157;-77
2020/12/13 08:41:33;;;;;;;50.52;26.90;;;;;;;2.48;87.66;100964.66;1768268;81;22110;-85
2020/12/13 08:44:00;;;;;;;53.42;25.80;;;;;;;2.53;87.68;100969.70;1766443;80;21278;-76
2020/12/13 08:46:38;;;;;;;44.00;25.02;;;;;;;2.55;87.53;100972.41;1759482;81;21656;-75
2020/12/13 08:49:06;;;;;;;45.70;25.62;;;;;;;2.51;87.41;100973.91;1759507;81;21214;-77
2020/12/13 08:51:33;;;;;;;54.33;28.67;;;;;;;2.53;87.52;100986.22;1759444;81;21198;-77
2020/12/13 08:54:04;;;;;;;50.98;26.00;;;;;;;2.58;87.57;100985.19;1759475;80;21972;-77
2020/12/13 08:56:33;;;;;;;54.60;26.55;;;;;;;2.57;87.53;100984.67;1759015;81;21113;-76
2020/12/13 08:59:01;;;;;;;59.30;28.20;;;;;;;2.61;87.60;100989.28;1758880;81;21195;-77
2020/12/13 09:01:35;;;;;;;54.90;28.05;;;;;;;2.64;87.64;100989.44;1758754;81;21198;-76
2020/12/13 09:04:15;;;;;;;53.15;28.40;;;;;;;2.68;87.55;100985.33;1758813;81;21593;-76
2020/12/13 09:06:52;;;;;;;53.35;28.02;;;;;;;2.70;87.57;100983.34;1760395;81;22602;-76
2020/12/13 09:09:19;;;;;;;68.37;30.57;;;;;;;2.77;87.59;100981.09;1760404;81;21461;-76
2020/12/13 09:11:46;;;;;;;57.67;28.90;;;;;;;2.79;87.56;100982.09;1758828;81;21230;-76
2020/12/13 09:14:26;;;;;;;56.53;30.30;;;;;;;2.80;87.50;100987.38;1758876;81;21139;-84
2020/12/13 09:16:53;;;;;;;65.87;29.85;;;;;;;2.83;87.58;100984.95;1736031;81;21123;-82
2020/12/13 09:19:21;;;;;;;59.98;30.20;;;;;;;2.87;87.50;100987.33;1759118;81;21896;-74
2020/12/13 09:21:57;;;;;;;61.23;31.42;;;;;;;2.86;87.41;100992.94;1758851;81;21210;-74
2020/12/13 09:24:31;;;;;;;68.00;33.90;;;;;;;2.87;87.40;100992.15;1758877;81;21167;-74
2020/12/13 09:27:18;;;;;;;84.32;37.65;;;;;;;2.86;87.42;100998.14;1758778;81;21183;-74
2020/12/13 09:29:44;;;;;;;85.67;41.35;;;;;;;2.90;87.59;100991.02;1758184;81;21191;-74
2020/12/13 09:32:11;;;;;;;84.07;39.67;;;;;;;2.92;87.47;100992.41;1758768;81;22014;-74
2020/12/13 09:34:38;;;;;;;81.10;37.13;;;;;;;2.90;87.34;100994.91;1758728;81;21760;-74
2020/12/13 09:37:11;;;;;;;91.85;41.83;;;;;;;2.90;87.35;100989.71;1758758;81;21648;-74
2020/12/13 09:39:38;;;;;;;90.53;41.77;;;;;;;2.92;87.41;100993.30;1759089;81;21217;-74
2020/12/13 09:42:05;;;;;;;106.83;47.15;;;;;;;2.94;87.35;100992.09;1758755;81;21201;-73
2020/12/13 09:44:32;;;;;;;126.47;49.00;;;;;;;2.99;87.45;100996.28;1760652;80;22798;-73
2020/12/13 09:47:00;;;;;;;112.15;45.65;;;;;;;3.02;87.47;100991.25;1767027;79;21636;-74
2020/12/13 09:49:27;;;;;;;114.25;45.48;;;;;;;3.05;87.47;100984.52;1767155;80;21130;-73
2020/12/13 09:52:00;;;;;;;94.85;40.10;;;;;;;3.09;87.47;100990.39;1767181;81;21190;-73
2020/12/13 09:54:27;;;;;;;93.87;41.50;;;;;;;3.14;87.47;100983.30;1767314;81;21154;-74
2020/12/13 09:56:54;;;;;;;87.47;43.08;;;;;;;3.17;87.39;100983.45;1767091;81;23000;-74
2020/12/13 09:59:22;;;;;;;86.97;42.23;;;;;;;3.19;87.40;100980.16;1767018;81;21159;-75
2020/12/13 10:01:49;;;;;;;81.75;39.98;;;;;;;3.22;87.30;100983.32;1767091;79;21559;-74
2020/12/13 10:04:18;;;;;;;77.40;38.75;;;;;;;3.23;87.29;100986.02;1767124;81;21184;-74
2020/12/13 10:09:28;;;;;;;85.32;41.68;;;;;;;3.32;87.29;100979.13;1888708;76;23261;-73
2020/12/13 10:11:55;;;;;;;87.12;42.50;;;;;;;3.25;87.11;100975.30;1856968;76;21083;-74
2020/12/13 10:14:22;;;;;;;85.55;44.88;;;;;;;3.25;87.15;100975.70;1857000;77;22824;-74
2020/12/13 10:16:50;;;;;;;95.90;44.05;;;;;;;3.26;87.15;100966.66;1856785;77;21557;-74
2020/12/13 10:19:20;;;;;;;92.25;45.45;;;;;;;3.25;87.10;100958.38;1856898;77;21240;-74
2020/12/13 10:21:47;;;;;;;99.50;50.33;;;;;;;3.23;87.07;100949.59;1857014;77;21190;-74
2020/12/13 10:24:14;;;;;;;93.10;48.00;;;;;;;3.25;87.23;100960.98;1856951;77;21197;-74
2020/12/13 10:26:41;;;;;;;103.17;45.45;;;;;;;3.29;87.31;100968.56;1857047;77;21878;-74
2020/12/13 10:29:08;;;;;;;92.10;43.40;;;;;;;3.36;87.38;100976.30;1856819;77;21181;-74
2020/12/13 10:31:37;;;;;;;86.10;42.08;;;;;;;3.40;87.33;100974.39;1856835;77;21580;-74
2020/12/13 10:34:07;;;;;;;77.85;39.78;;;;;;;3.45;87.31;100978.13;1856892;77;21239;-74
2020/12/13 10:36:38;;;;;;;77.87;39.45;;;;;;;3.53;87.32;100978.56;1826758;77;21580;-74
2020/12/13 10:39:06;;;;;;;78.00;38.83;;;;;;;3.57;87.28;100979.26;1856957;77;22130;-74
2020/12/13 10:41:33;;;;;;;80.17;39.70;;;;;;;3.60;87.15;100967.28;1856919;77;21170;-74
2020/12/13 10:44:01;;;;;;;77.53;38.67;;;;;;;3.65;87.15;100971.47;1856905;77;21452;-74
2020/12/13 10:46:28;;;;;;;81.82;41.83;;;;;;;3.67;87.05;100973.75;1856900;77;21122;-74
2020/12/13 10:48:57;;;;;;;81.82;40.63;;;;;;;3.74;87.08;100975.00;1856925;76;21139;-74
2020/12/13 10:51:24;;;;;;;83.87;44.40;;;;;;;3.78;87.06;100972.64;1856845;77;23088;-74
2020/12/13 10:53:51;;;;;;;86.20;44.77;;;;;;;3.84;87.00;100976.88;1856911;77;21135;-74
2020/12/13 10:56:18;;;;;;;94.65;47.00;;;;;;;3.85;86.83;100977.39;1856876;77;21161;-74
2020/12/13 10:58:45;;;;;;;99.92;48.83;;;;;;;3.89;86.89;100983.66;1856848;77;21138;-74
2020/12/13 11:01:12;;;;;;;92.17;46.58;;;;;;;3.92;86.82;100981.20;1856975;76;21178;-74
2020/12/13 11:03:40;;;;;;;95.07;49.23;;;;;;;3.93;86.68;100983.02;1856869;77;21919;-74
2020/12/13 11:06:10;;;;;;;103.65;49.25;;;;;;;3.96;86.71;100982.27;1856806;77;21440;-74
2020/12/13 11:08:37;;;;;;;99.17;47.83;;;;;;;3.98;86.65;100989.77;1857080;76;21130;-74
2020/12/13 11:11:05;;;;;;;109.00;50.28;;;;;;;3.98;86.58;100982.87;1857469;75;21185;-74
2020/12/13 11:13:34;;;;;;;95.67;48.25;;;;;;;4.00;86.62;100982.55;1857458;77;21552;-74
2020/12/13 11:16:01;;;;;;;101.50;50.12;;;;;;;4.03;86.62;100980.50;1857508;77;21679;-74
2020/12/13 11:18:30;;;;;;;103.25;52.23;;;;;;;4.07;86.63;100991.58;1857387;77;21123;-74
2020/12/13 11:21:00;;;;;;;99.10;50.00;;;;;;;4.06;86.53;100981.98;1856902;77;21153;-74
2020/12/13 11:23:27;;;;;;;92.35;47.43;;;;;;;4.09;86.47;100987.34;1856942;77;21114;-74
2020/12/13 11:25:54;;;;;;;99.03;48.25;;;;;;;4.08;86.42;100985.57;1856947;75;21043;-74
2020/12/13 11:28:21;;;;;;;113.92;52.10;;;;;;;4.13;86.56;100986.73;1856905;77;21667;-74
2020/12/13 11:30:49;;;;;;;115.20;52.08;;;;;;;4.18;86.53;100979.15;1856824;77;21198;-74
2020/12/13 11:33:16;;;;;;;99.87;48.35;;;;;;;4.21;86.46;100984.12;1856927;77;21397;-74
2020/12/13 11:35:43;;;;;;;103.17;46.98;;;;;;;4.21;86.26;100980.63;1856904;77;21217;-74
2020/12/13 11:38:10;;;;;;;102.02;48.78;;;;;;;4.21;86.28;100978.02;1856933;77;21166;-74
2020/12/13 11:40:37;;;;;;;101.70;51.48;;;;;;;4.24;86.37;100983.00;1856901;77;21779;-74
2020/12/13 11:43:04;;;;;;;98.85;51.08;;;;;;;4.27;86.29;100982.25;1856880;77;21214;-74
2020/12/13 11:45:31;;;;;;;101.58;52.17;;;;;;;4.26;86.20;100978.76;1856927;77;21118;-74
2020/12/13 11:47:59;;;;;;;114.85;56.37;;;;;;;4.29;86.26;100984.53;1856883;77;21601;-74
2020/12/13 11:50:26;;;;;;;117.28;56.10;;;;;;;4.32;86.25;100986.02;1856919;77;21122;-74
2020/12/13 11:52:53;;;;;;;102.97;50.90;;;;;;;4.33;86.16;100982.58;1856819;76;21867;-74